createdAt,value
2019-04-30T00:00:10.996Z,3.50
2019-04-30T00:02:50.427Z,3.10
2019-04-30T00:05:19.838Z,3.52
2019-04-30T00:07:50.882Z,3.05
2019-04-30T00:10:19.466Z,5.12
2019-04-30T00:12:48.556Z,3.33
2019-04-30T00:15:19.477Z,4.25
2019-04-30T00:17:52.788Z,3.25
2019-04-30T00:20:18.711Z,3.05
2019-04-30T00:22:50.446Z,3.83
2019-04-30T00:25:19.719Z,3.60
2019-04-30T00:27:49.471Z,3.42
2019-04-30T00:30:18.582Z,3.90
2019-04-30T00:32:47.668Z,3.22
2019-04-30T00:35:19.556Z,3.30
2019-04-30T00:37:51.740Z,7.72
2019-04-30T00:40:21.708Z,3.50
2019-04-30T00:42:48.660Z,3.50
2019-04-30T00:45:17.546Z,3.45
2019-04-30T00:47:47.904Z,3.75
2019-04-30T00:50:18.723Z,3.37
2019-04-30T00:52:47.696Z,4.78
2019-04-30T00:55:16.796Z,4.22
2019-04-30T00:57:47.484Z,4.10
2019-04-30T01:00:25.062Z,5.22
2019-04-30T01:02:49.495Z,4.05
2019-04-30T01:05:22.175Z,4.92
2019-04-30T01:07:51.902Z,6.33
2019-04-30T01:10:24.711Z,4.22
2019-04-30T01:12:52.551Z,4.05
2019-04-30T01:15:21.431Z,4.97
2019-04-30T01:17:53.730Z,4.75
2019-04-30T01:20:24.164Z,4.97
2019-04-30T01:22:54.250Z,4.12
2019-04-30T01:25:23.539Z,5.03
2019-04-30T01:27:52.990Z,5.58
2019-04-30T01:30:22.968Z,5.17
2019-04-30T01:32:56.544Z,3.95
2019-04-30T01:35:23.882Z,4.47
2019-04-30T01:37:53.442Z,4.85
2019-04-30T01:40:22.313Z,4.72
2019-04-30T01:42:51.958Z,4.45
2019-04-30T01:45:23.159Z,5.08
2019-04-30T01:47:51.756Z,5.17
2019-04-30T01:50:20.759Z,4.85
2019-04-30T01:52:52.817Z,4.85
2019-04-30T01:55:24.400Z,4.95
2019-04-30T01:57:54.892Z,5.35
2019-04-30T02:00:29.324Z,4.47
2019-04-30T02:02:59.240Z,5.45
2019-04-30T02:05:28.761Z,4.10
2019-04-30T02:07:58.512Z,4.72
2019-04-30T02:10:28.536Z,4.97
2019-04-30T02:12:59.082Z,5.42
2019-04-30T02:15:29.157Z,6.33
2019-04-30T02:17:58.894Z,5.30
2019-04-30T02:20:28.663Z,6.45
2019-04-30T02:22:58.705Z,5.65
2019-04-30T02:25:29.524Z,6.47
2019-04-30T02:27:59.163Z,6.85
2019-04-30T02:30:30.977Z,6.78
2019-04-30T02:33:00.478Z,8.10
2019-04-30T02:35:43.810Z,8.50
2019-04-30T02:38:19.864Z,8.90
2019-04-30T02:40:49.763Z,7.22
2019-04-30T02:43:21.217Z,8.23
2019-04-30T02:45:52.359Z,8.90
2019-04-30T02:48:23.328Z,7.33
2019-04-30T02:50:53.691Z,7.08
2019-04-30T02:53:51.292Z,8.13
2019-04-30T02:56:20.965Z,9.63
2019-04-30T02:58:50.564Z,10.00
2019-04-30T03:01:20.497Z,7.92
2019-04-30T03:03:50.263Z,7.80
2019-04-30T03:06:20.345Z,8.63
2019-04-30T03:08:51.052Z,10.25
2019-04-30T03:11:20.982Z,9.45
2019-04-30T03:13:50.290Z,9.38
2019-04-30T03:16:26.865Z,11.57
2019-04-30T03:19:09.987Z,10.93
2019-04-30T03:21:50.362Z,10.08
2019-04-30T03:24:20.161Z,9.38
2019-04-30T03:26:50.040Z,13.68
2019-04-30T03:29:23.447Z,11.43
2019-04-30T03:31:52.487Z,10.05
2019-04-30T03:34:25.692Z,13.18
2019-04-30T03:36:51.155Z,11.90
2019-04-30T03:39:20.169Z,10.75
2019-04-30T03:41:50.201Z,8.23
2019-04-30T03:44:25.496Z,10.38
2019-04-30T03:46:50.317Z,10.63
2019-04-30T03:49:20.182Z,10.00
2019-04-30T03:51:50.003Z,9.83
2019-04-30T03:54:19.461Z,9.93
2019-04-30T03:56:50.171Z,10.18
2019-04-30T03:59:20.030Z,11.28
2019-04-30T04:01:54.638Z,9.68
2019-04-30T04:04:43.471Z,9.63
2019-04-30T04:07:16.905Z,10.95
2019-04-30T04:09:49.707Z,10.63
2019-04-30T04:12:30.473Z,9.55
2019-04-30T04:15:03.154Z,12.43
2019-04-30T04:17:31.482Z,9.60
2019-04-30T04:20:00.058Z,11.63
2019-04-30T04:22:30.706Z,9.23
2019-04-30T04:25:00.464Z,8.13
2019-04-30T04:27:30.291Z,9.13
2019-04-30T04:30:01.068Z,8.73
2019-04-30T04:32:31.050Z,10.50
2019-04-30T04:35:00.486Z,9.70
2019-04-30T04:37:30.411Z,10.45
2019-04-30T04:39:59.729Z,9.43
2019-04-30T04:42:32.520Z,8.65
2019-04-30T04:44:59.689Z,9.35
2019-04-30T04:47:30.958Z,10.43
2019-04-30T04:50:00.756Z,8.58
2019-04-30T04:52:31.598Z,8.53
2019-04-30T04:55:00.817Z,9.88
2019-04-30T04:57:30.483Z,8.98
2019-04-30T05:00:06.864Z,10.23
2019-04-30T05:02:34.871Z,8.78
2019-04-30T05:05:04.572Z,9.08
2019-04-30T05:07:33.441Z,8.43
2019-04-30T05:10:02.233Z,8.15
2019-04-30T05:12:31.441Z,8.68
2019-04-30T05:15:00.434Z,10.50
2019-04-30T05:17:31.872Z,9.23
2019-04-30T05:20:00.055Z,8.83
2019-04-30T05:22:29.384Z,9.13
2019-04-30T05:24:59.073Z,9.88
2019-04-30T05:27:30.173Z,9.53
2019-04-30T05:29:59.585Z,10.88
2019-04-30T05:32:29.293Z,9.38
2019-04-30T05:34:58.756Z,9.30
2019-04-30T05:37:28.430Z,10.85
2019-04-30T05:39:58.457Z,11.63
2019-04-30T05:42:28.625Z,9.60
2019-04-30T05:44:59.260Z,10.10
2019-04-30T05:47:29.155Z,9.53
2019-04-30T05:49:58.481Z,8.63
2019-04-30T05:52:29.531Z,11.53
2019-04-30T05:54:58.499Z,9.08
2019-04-30T05:57:29.487Z,9.95
2019-04-30T05:59:58.640Z,8.35
2019-04-30T06:02:30.756Z,11.63
2019-04-30T06:04:58.791Z,8.88
2019-04-30T06:07:29.797Z,11.65
2019-04-30T06:10:00.088Z,12.10
2019-04-30T06:12:49.988Z,10.00
2019-04-30T06:15:39.128Z,9.60
2019-04-30T06:18:13.542Z,12.07
2019-04-30T06:20:38.866Z,11.28
2019-04-30T06:23:09.471Z,11.25
2019-04-30T06:25:55.695Z,10.45
2019-04-30T06:28:09.843Z,11.30
2019-04-30T06:30:39.661Z,11.43
2019-04-30T06:33:11.563Z,12.35
2019-04-30T06:35:39.875Z,11.83
2019-04-30T06:38:08.878Z,12.25
2019-04-30T06:40:39.143Z,11.50
2019-04-30T06:43:09.223Z,11.43
2019-04-30T06:45:38.853Z,13.05
2019-04-30T06:48:09.005Z,10.88
2019-04-30T06:50:39.313Z,14.55
2019-04-30T06:53:09.326Z,13.18
2019-04-30T06:55:39.442Z,15.28
2019-04-30T06:58:14.782Z,12.37
2019-04-30T07:00:40.381Z,15.13
2019-04-30T07:03:09.957Z,14.20
2019-04-30T07:05:39.361Z,11.90
2019-04-30T07:08:38.835Z,12.25
2019-04-30T07:11:17.108Z,12.00
2019-04-30T07:13:49.524Z,11.15
2019-04-30T07:16:18.976Z,15.72
2019-04-30T07:18:48.903Z,13.40
2019-04-30T07:21:19.777Z,15.63
2019-04-30T07:23:48.707Z,11.63
2019-04-30T07:26:19.688Z,12.90
2019-04-30T07:28:54.645Z,13.45
2019-04-30T07:31:19.224Z,16.75
2019-04-30T07:33:53.008Z,12.65
2019-04-30T07:36:19.519Z,13.10
2019-04-30T07:38:54.464Z,13.78
2019-04-30T07:41:19.423Z,15.10
2019-04-30T07:43:49.357Z,13.50
2019-04-30T07:46:19.938Z,13.32
2019-04-30T07:48:50.516Z,10.88
2019-04-30T07:51:21.233Z,12.68
2019-04-30T07:53:50.146Z,10.28
2019-04-30T07:56:25.563Z,11.75
2019-04-30T07:58:50.449Z,12.07
2019-04-30T08:01:19.872Z,11.83
2019-04-30T08:03:59.343Z,10.45
2019-04-30T08:06:30.997Z,12.00
2019-04-30T08:09:00.849Z,13.00
2019-04-30T08:11:34.498Z,13.93
2019-04-30T08:14:00.921Z,9.03
2019-04-30T08:16:30.162Z,10.58
2019-04-30T08:18:59.302Z,14.20
2019-04-30T08:21:28.799Z,15.23
2019-04-30T08:23:59.343Z,11.73
2019-04-30T08:26:28.892Z,11.15
2019-04-30T08:28:59.628Z,10.00
2019-04-30T08:31:29.261Z,11.88
2019-04-30T08:33:59.099Z,10.78
2019-04-30T08:36:29.858Z,9.68
2019-04-30T08:38:59.654Z,11.15
2019-04-30T08:41:29.370Z,11.83
2019-04-30T08:43:59.755Z,8.23
2019-04-30T08:46:28.899Z,12.70
2019-04-30T08:48:58.721Z,11.85
2019-04-30T08:51:30.474Z,10.35
2019-04-30T08:53:58.783Z,10.35
2019-04-30T08:56:29.600Z,11.65
2019-04-30T08:58:59.382Z,11.30
2019-04-30T09:01:29.447Z,12.98
2019-04-30T09:03:59.710Z,10.10
2019-04-30T09:06:29.929Z,12.85
2019-04-30T09:08:59.973Z,13.58
2019-04-30T09:11:38.322Z,11.93
2019-04-30T09:13:59.797Z,11.35
2019-04-30T09:16:29.495Z,10.32
2019-04-30T09:18:59.542Z,11.28
2019-04-30T09:21:30.003Z,15.00
2019-04-30T09:23:59.517Z,10.38
2019-04-30T09:26:29.164Z,11.18
2019-04-30T09:28:59.357Z,12.50
2019-04-30T09:31:29.572Z,10.32
2019-04-30T09:34:00.992Z,10.53
2019-04-30T09:36:31.083Z,10.63
2019-04-30T09:39:01.478Z,12.23
2019-04-30T09:41:30.814Z,12.55
2019-04-30T09:43:59.836Z,12.23
2019-04-30T09:46:29.921Z,10.13
2019-04-30T09:48:59.764Z,13.03
2019-04-30T09:51:30.459Z,11.03
2019-04-30T09:54:02.793Z,10.65
2019-04-30T09:56:30.414Z,13.40
2019-04-30T09:58:59.412Z,12.28
2019-04-30T10:01:28.496Z,15.23
2019-04-30T10:04:00.080Z,11.25
2019-04-30T10:06:39.384Z,13.68
2019-04-30T10:08:59.909Z,10.98
2019-04-30T10:11:30.550Z,11.43
2019-04-30T10:13:59.697Z,11.18
2019-04-30T10:16:30.117Z,8.95
2019-04-30T10:19:01.374Z,13.03
2019-04-30T10:21:30.670Z,11.95
2019-04-30T10:24:12.525Z,11.22
2019-04-30T10:26:30.362Z,11.28
2019-04-30T10:28:59.489Z,10.72
2019-04-30T10:31:29.325Z,11.08
2019-04-30T10:33:58.727Z,12.18
2019-04-30T10:36:29.439Z,9.98
2019-04-30T10:38:59.890Z,10.03
2019-04-30T10:41:30.878Z,10.72
2019-04-30T10:43:59.593Z,11.28
2019-04-30T10:46:28.461Z,7.85
2019-04-30T10:48:57.913Z,12.20
2019-04-30T10:51:28.736Z,11.00
2019-04-30T10:53:59.158Z,10.68
2019-04-30T10:56:29.183Z,12.80
2019-04-30T10:58:58.825Z,11.48
2019-04-30T11:01:29.200Z,11.25
2019-04-30T11:03:58.616Z,10.28
2019-04-30T11:06:27.707Z,9.60
2019-04-30T11:08:56.770Z,7.67
2019-04-30T11:11:26.114Z,9.78
2019-04-30T11:13:55.220Z,9.55
2019-04-30T11:16:24.298Z,12.35
2019-04-30T11:18:53.344Z,8.18
2019-04-30T11:21:22.697Z,10.88
2019-04-30T11:23:51.963Z,12.05
2019-04-30T11:26:21.863Z,10.75
2019-04-30T11:28:51.105Z,10.78
2019-04-30T11:31:25.029Z,10.20
2019-04-30T11:33:56.502Z,10.05
2019-04-30T11:36:25.772Z,9.48
2019-04-30T11:38:54.627Z,10.05
2019-04-30T11:41:30.893Z,9.53
2019-04-30T11:43:54.034Z,8.08
2019-04-30T11:46:29.194Z,9.93
2019-04-30T11:48:58.689Z,12.00
2019-04-30T11:51:29.505Z,9.95
2019-04-30T11:53:59.461Z,10.18
2019-04-30T11:56:28.451Z,8.30
2019-04-30T11:58:58.925Z,9.35
2019-04-30T12:01:29.770Z,10.80
2019-04-30T12:03:59.804Z,11.33
2019-04-30T12:06:28.918Z,10.00
2019-04-30T12:08:59.874Z,9.28
2019-04-30T12:11:36.587Z,9.28
2019-04-30T12:14:05.950Z,7.85
2019-04-30T12:16:35.030Z,8.15
2019-04-30T12:19:04.953Z,10.18
2019-04-30T12:21:34.171Z,11.22
2019-04-30T12:24:03.272Z,9.50
2019-04-30T12:26:32.021Z,10.82
2019-04-30T12:29:01.134Z,10.88
2019-04-30T12:31:30.052Z,8.78
2019-04-30T12:33:59.014Z,7.72
2019-04-30T12:36:28.910Z,8.93
2019-04-30T12:38:58.114Z,10.55
2019-04-30T12:41:27.134Z,9.50
2019-04-30T12:43:56.114Z,10.48
2019-04-30T12:46:25.114Z,13.35
2019-04-30T12:48:59.592Z,10.10
2019-04-30T12:51:48.792Z,11.57
2019-04-30T12:54:22.816Z,8.40
2019-04-30T12:57:10.855Z,9.05
2019-04-30T12:59:39.729Z,7.37
2019-04-30T13:02:09.140Z,9.15
2019-04-30T13:04:39.383Z,8.13
2019-04-30T13:07:10.654Z,8.93
2019-04-30T13:09:40.257Z,10.15
2019-04-30T13:12:10.835Z,9.75
2019-04-30T13:14:51.434Z,9.43
2019-04-30T13:17:11.411Z,10.25
2019-04-30T13:19:40.596Z,10.10
2019-04-30T13:22:11.380Z,8.00
2019-04-30T13:24:40.575Z,8.60
2019-04-30T13:27:09.954Z,6.95
2019-04-30T13:29:41.611Z,9.30
2019-04-30T13:32:10.766Z,9.83
2019-04-30T13:34:47.573Z,9.33
2019-04-30T13:37:16.567Z,10.43
2019-04-30T13:42:50.981Z,13.72
2019-04-30T13:45:20.769Z,9.43
2019-04-30T13:47:49.946Z,9.95
2019-04-30T13:50:21.528Z,9.50
2019-04-30T13:52:50.754Z,12.35
2019-04-30T13:55:19.739Z,9.40
2019-04-30T13:57:49.013Z,11.48
2019-04-30T14:00:29.779Z,10.85
2019-04-30T14:03:12.865Z,10.30
2019-04-30T14:05:41.835Z,10.88
2019-04-30T14:08:20.010Z,11.40
2019-04-30T14:10:49.344Z,9.60
2019-04-30T14:13:18.634Z,10.20
2019-04-30T14:15:48.546Z,11.40
2019-04-30T14:18:27.872Z,10.68
2019-04-30T14:20:48.267Z,10.35
2019-04-30T14:23:18.628Z,10.48
2019-04-30T14:25:56.444Z,8.73
2019-04-30T14:28:19.118Z,9.58
2019-04-30T14:30:48.591Z,8.70
2019-04-30T14:33:24.166Z,9.55
2019-04-30T14:35:49.751Z,11.28
2019-04-30T14:38:19.316Z,8.75
2019-04-30T14:40:50.623Z,8.95
2019-04-30T14:43:20.808Z,10.08
2019-04-30T14:46:04.267Z,10.58
2019-04-30T14:48:51.136Z,9.05
2019-04-30T14:51:20.956Z,8.28
2019-04-30T14:53:51.794Z,9.05
2019-04-30T14:56:24.892Z,7.33
2019-04-30T14:59:12.152Z,9.48
2019-04-30T15:01:49.099Z,10.25
2019-04-30T15:04:20.555Z,10.53
2019-04-30T15:06:49.715Z,10.68
2019-04-30T15:09:19.008Z,10.55
2019-04-30T15:11:48.741Z,8.70
2019-04-30T15:14:17.814Z,9.95
2019-04-30T15:16:46.814Z,9.10
2019-04-30T15:19:16.015Z,8.78
2019-04-30T15:21:44.858Z,8.95
2019-04-30T15:24:24.638Z,9.30
2019-04-30T15:26:57.772Z,9.35
2019-04-30T15:29:24.417Z,10.13
2019-04-30T15:31:53.811Z,7.70
2019-04-30T15:34:22.961Z,9.88
2019-04-30T15:36:52.161Z,7.50
2019-04-30T15:39:22.947Z,9.10
2019-04-30T15:41:52.523Z,9.80
2019-04-30T15:44:21.532Z,8.25
2019-04-30T15:46:50.714Z,8.28
2019-04-30T15:49:19.714Z,8.15
2019-04-30T15:51:48.695Z,7.35
2019-04-30T15:54:19.026Z,7.78
2019-04-30T15:56:48.966Z,8.23
2019-04-30T15:59:26.131Z,9.28
2019-04-30T16:01:56.854Z,8.73
2019-04-30T16:04:28.574Z,9.40
2019-04-30T16:06:58.492Z,8.05
2019-04-30T16:09:35.189Z,10.10
2019-04-30T16:12:21.195Z,7.72
2019-04-30T16:14:50.070Z,10.60
2019-04-30T16:17:22.955Z,8.65
2019-04-30T16:19:52.275Z,6.78
2019-04-30T16:22:21.755Z,8.18
2019-04-30T16:24:50.792Z,8.25
2019-04-30T16:27:20.412Z,7.00
2019-04-30T16:29:49.827Z,8.40
2019-04-30T16:32:19.795Z,7.87
2019-04-30T16:34:49.830Z,7.15
2019-04-30T16:37:20.224Z,7.55
2019-04-30T16:39:49.311Z,8.50
2019-04-30T16:42:19.128Z,7.05
2019-04-30T16:44:48.456Z,8.23
2019-04-30T16:47:19.653Z,7.50
2019-04-30T16:49:49.253Z,7.72
2019-04-30T16:52:19.013Z,7.55
2019-04-30T16:54:49.710Z,7.47
2019-04-30T16:57:19.134Z,7.28
2019-04-30T16:59:49.801Z,6.83
2019-04-30T17:02:19.270Z,6.53
2019-04-30T17:04:50.072Z,7.87
2019-04-30T17:07:23.306Z,6.22
2019-04-30T17:09:58.972Z,6.78
2019-04-30T17:12:40.955Z,7.92
2019-04-30T17:15:14.655Z,7.83
2019-04-30T17:17:43.755Z,10.38
2019-04-30T17:20:13.156Z,7.65
2019-04-30T17:22:42.583Z,6.65
2019-04-30T17:25:11.860Z,6.37
2019-04-30T17:27:40.956Z,6.90
2019-04-30T17:30:11.108Z,7.62
2019-04-30T17:32:40.256Z,7.85
2019-04-30T17:35:09.876Z,7.95
2019-04-30T17:37:39.080Z,6.60
2019-04-30T17:40:09.581Z,6.53
2019-04-30T17:42:43.663Z,7.50
2019-04-30T17:45:13.223Z,6.58
2019-04-30T17:47:42.214Z,6.62
2019-04-30T17:50:11.402Z,6.67
2019-04-30T17:52:40.395Z,7.67
2019-04-30T17:55:10.001Z,5.90
2019-04-30T17:57:40.322Z,7.95
2019-04-30T18:00:18.819Z,6.08
2019-04-30T18:02:42.825Z,7.00
2019-04-30T18:05:12.305Z,7.78
2019-04-30T18:07:41.845Z,7.80
2019-04-30T18:10:13.173Z,7.08
2019-04-30T18:12:42.541Z,7.40
2019-04-30T18:15:20.257Z,6.53
2019-04-30T18:17:50.700Z,6.37
2019-04-30T18:20:36.717Z,5.53
2019-04-30T18:23:23.819Z,6.92
2019-04-30T18:25:57.891Z,5.90
2019-04-30T18:28:29.031Z,6.58
2019-04-30T18:30:59.059Z,6.22
2019-04-30T18:33:28.322Z,6.40
2019-04-30T18:35:57.311Z,6.55
2019-04-30T18:38:26.373Z,8.50
2019-04-30T18:40:55.462Z,9.23
2019-04-30T18:43:24.248Z,6.97
2019-04-30T18:45:53.388Z,5.78
2019-04-30T18:48:22.519Z,7.72
2019-04-30T18:50:51.555Z,8.80
2019-04-30T18:53:22.063Z,7.67
2019-04-30T18:55:51.374Z,6.45
2019-04-30T18:58:20.456Z,5.92
2019-04-30T19:00:49.665Z,6.90
2019-04-30T19:03:21.563Z,6.70
2019-04-30T19:05:51.554Z,5.35
2019-04-30T19:08:22.167Z,6.55
2019-04-30T19:10:55.679Z,6.37
2019-04-30T19:13:42.608Z,6.37
2019-04-30T19:16:21.961Z,9.55
2019-04-30T19:18:48.879Z,6.87
2019-04-30T19:21:17.950Z,7.05
2019-04-30T19:23:48.625Z,6.12
2019-04-30T19:26:19.030Z,6.50
2019-04-30T19:28:49.304Z,8.30
2019-04-30T19:31:19.894Z,5.97
2019-04-30T19:33:49.694Z,6.62
2019-04-30T19:36:20.906Z,8.83
2019-04-30T19:38:50.696Z,7.17
2019-04-30T19:41:19.954Z,8.03
2019-04-30T19:43:50.173Z,5.62
2019-04-30T19:46:19.355Z,7.67
2019-04-30T19:48:50.402Z,6.03
2019-04-30T19:51:19.766Z,8.28
2019-04-30T19:53:49.128Z,6.78
2019-04-30T19:56:20.529Z,6.20
2019-04-30T20:01:56.244Z,7.67
2019-04-30T20:04:33.353Z,6.60
2019-04-30T20:06:55.904Z,6.30
2019-04-30T20:09:25.043Z,6.58
2019-04-30T20:11:56.588Z,6.15
2019-04-30T20:16:53.054Z,6.83
2019-04-30T20:19:22.465Z,7.83
2019-04-30T20:21:53.783Z,6.55
2019-04-30T20:24:22.169Z,7.40
2019-04-30T20:26:58.273Z,6.67
2019-04-30T20:29:22.437Z,7.03
2019-04-30T20:31:51.566Z,6.22
2019-04-30T20:34:23.118Z,6.87
2019-04-30T20:36:54.908Z,6.53
2019-04-30T20:39:40.899Z,6.40
2019-04-30T20:42:11.741Z,7.35
2019-04-30T20:44:40.621Z,7.92
2019-04-30T20:47:11.261Z,6.08
2019-04-30T20:49:40.230Z,7.80
2019-04-30T20:52:09.590Z,7.33
2019-04-30T20:54:39.033Z,6.67
2019-04-30T20:57:08.760Z,7.08
2019-04-30T20:59:39.893Z,7.15
2019-04-30T21:02:08.893Z,6.55
2019-04-30T21:04:38.195Z,6.85
2019-04-30T21:07:10.178Z,7.22
2019-04-30T21:09:39.477Z,6.30
2019-04-30T21:12:08.980Z,7.42
2019-04-30T21:14:38.506Z,6.85
2019-04-30T21:17:09.389Z,7.33
2019-04-30T21:19:38.648Z,7.22
2019-04-30T21:22:09.452Z,6.15
2019-04-30T21:24:38.564Z,6.37
2019-04-30T21:27:07.664Z,7.55
2019-04-30T21:29:36.733Z,6.97
2019-04-30T21:32:13.512Z,6.87
2019-04-30T21:34:44.161Z,5.08
2019-04-30T21:37:13.244Z,6.58
2019-04-30T21:39:42.664Z,6.95
2019-04-30T21:42:11.537Z,7.92
2019-04-30T21:44:40.622Z,6.62
2019-04-30T21:47:09.594Z,6.33
2019-04-30T21:49:38.623Z,5.90
2019-04-30T21:52:07.728Z,7.83
2019-04-30T21:54:38.647Z,6.75
2019-04-30T21:57:07.344Z,8.63
2019-04-30T21:59:36.283Z,6.97
2019-04-30T22:02:07.184Z,8.88
2019-04-30T22:04:36.284Z,7.65
2019-04-30T22:07:05.583Z,7.00
2019-04-30T22:09:34.764Z,6.97
2019-04-30T22:12:03.751Z,6.67
2019-04-30T22:14:32.763Z,7.30
2019-04-30T22:17:02.064Z,9.70
2019-04-30T22:19:31.144Z,6.85
2019-04-30T22:22:00.308Z,7.97
2019-04-30T22:24:30.525Z,6.80
2019-04-30T22:26:59.539Z,6.55
2019-04-30T22:29:39.045Z,6.25
2019-04-30T22:31:59.466Z,7.97
2019-04-30T22:34:28.906Z,7.37
2019-04-30T22:36:58.662Z,7.28
2019-04-30T22:39:32.504Z,7.35
2019-04-30T22:42:19.727Z,8.35
2019-04-30T22:44:49.239Z,6.95
2019-04-30T22:47:18.335Z,7.90
2019-04-30T22:49:47.868Z,7.25
2019-04-30T22:52:17.027Z,6.42
2019-04-30T22:54:45.914Z,6.75
2019-04-30T22:57:14.925Z,7.05
2019-04-30T22:59:49.810Z,5.90
2019-04-30T23:02:16.184Z,6.08
2019-04-30T23:04:46.824Z,6.05
2019-04-30T23:07:15.924Z,6.45
2019-04-30T23:09:45.004Z,7.22
2019-04-30T23:12:13.872Z,6.17
2019-04-30T23:14:43.085Z,5.90
2019-04-30T23:17:12.170Z,5.45
2019-04-30T23:19:41.301Z,5.97
2019-04-30T23:22:10.693Z,6.67
2019-04-30T23:24:39.776Z,6.08
2019-04-30T23:27:08.576Z,5.72
2019-04-30T23:29:37.766Z,7.87
2019-04-30T23:32:06.764Z,5.70
2019-04-30T23:34:35.649Z,8.15
2019-04-30T23:37:04.944Z,7.10
2019-04-30T23:39:33.832Z,7.47
2019-04-30T23:42:02.944Z,6.62
2019-04-30T23:44:32.124Z,6.15
2019-04-30T23:47:02.543Z,6.72
2019-04-30T23:49:31.564Z,5.40
2019-04-30T23:52:00.626Z,6.50
2019-04-30T23:54:29.711Z,6.30
2019-04-30T23:56:58.844Z,8.40
2019-04-30T23:59:27.944Z,7.72
